sensor_id;sensor_type;location;lat;lon;timestamp;temperature;humidity
25753;DHT22;13600;50.816;4.416;2023-09-07T00:02:11;22.20;99.90
25753;DHT22;13600;50.816;4.416;2023-09-07T00:04:37;22.10;99.90
25753;DHT22;13600;50.816;4.416;2023-09-07T00:07:02;22.10;99.90
25753;DHT22;13600;50.816;4.416;2023-09-07T00:09:29;22.00;99.90
25753;DHT22;13600;50.816;4.416;2023-09-07T00:11:55;21.90;99.90
25753;DHT22;13600;50.816;4.416;2023-09-07T00:14:22;21.90;99.90
25753;DHT22;13600;50.816;4.416;2023-09-07T00:16:48;21.90;99.90
25753;DHT22;13600;50.816;4.416;2023-09-07T00:19:14;21.90;99.90
25753;DHT22;13600;50.816;4.416;2023-09-07T00:21:40;21.80;99.90
25753;DHT22;13600;50.816;4.416;2023-09-07T00:24:06;21.90;99.90
25753;DHT22;13600;50.816;4.416;2023-09-07T00:26:32;21.90;99.90
25753;DHT22;13600;50.816;4.416;2023-09-07T00:28:58;21.90;99.90
25753;DHT22;13600;50.816;4.416;2023-09-07T00:31:24;21.90;99.90
25753;DHT22;13600;50.816;4.416;2023-09-07T00:33:50;21.80;99.90
25753;DHT22;13600;50.816;4.416;2023-09-07T00:36:16;21.80;99.90
25753;DHT22;13600;50.816;4.416;2023-09-07T00:38:42;21.70;99.90
25753;DHT22;13600;50.816;4.416;2023-09-07T00:41:11;21.80;99.90
25753;DHT22;13600;50.816;4.416;2023-09-07T00:43:38;21.80;99.90
25753;DHT22;13600;50.816;4.416;2023-09-07T00:46:06;21.80;99.90
25753;DHT22;13600;50.816;4.416;2023-09-07T00:48:32;21.90;99.90
25753;DHT22;13600;50.816;4.416;2023-09-07T00:50:59;21.90;99.90
25753;DHT22;13600;50.816;4.416;2023-09-07T00:53:26;21.80;99.90
25753;DHT22;13600;50.816;4.416;2023-09-07T00:55:54;21.70;99.90
25753;DHT22;13600;50.816;4.416;2023-09-07T00:58:21;21.80;99.90
25753;DHT22;13600;50.816;4.416;2023-09-07T01:00:47;21.80;99.90
25753;DHT22;13600;50.816;4.416;2023-09-07T01:03:13;21.60;99.90
25753;DHT22;13600;50.816;4.416;2023-09-07T01:05:50;21.50;99.90
25753;DHT22;13600;50.816;4.416;2023-09-07T01:08:23;21.50;99.90
25753;DHT22;13600;50.816;4.416;2023-09-07T01:10:53;21.50;99.90
25753;DHT22;13600;50.816;4.416;2023-09-07T01:13:19;21.40;99.90
25753;DHT22;13600;50.816;4.416;2023-09-07T01:15:46;21.30;99.90
25753;DHT22;13600;50.816;4.416;2023-09-07T01:18:13;21.30;99.90
25753;DHT22;13600;50.816;4.416;2023-09-07T01:20:41;21.20;99.90
25753;DHT22;13600;50.816;4.416;2023-09-07T01:23:08;21.20;99.90
25753;DHT22;13600;50.816;4.416;2023-09-07T01:25:35;21.10;99.90
25753;DHT22;13600;50.816;4.416;2023-09-07T01:28:02;21.20;99.90
25753;DHT22;13600;50.816;4.416;2023-09-07T01:30:28;21.10;99.90
25753;DHT22;13600;50.816;4.416;2023-09-07T01:32:54;21.10;99.90
25753;DHT22;13600;50.816;4.416;2023-09-07T01:35:19;21.00;99.90
25753;DHT22;13600;50.816;4.416;2023-09-07T01:37:47;21.00;99.90
25753;DHT22;13600;50.816;4.416;2023-09-07T01:40:13;20.90;99.90
25753;DHT22;13600;50.816;4.416;2023-09-07T01:42:39;20.90;99.90
25753;DHT22;13600;50.816;4.416;2023-09-07T01:45:05;20.80;99.90
25753;DHT22;13600;50.816;4.416;2023-09-07T01:47:31;20.80;99.90
25753;DHT22;13600;50.816;4.416;2023-09-07T01:49:57;21.00;99.90
25753;DHT22;13600;50.816;4.416;2023-09-07T01:52:22;20.80;99.90
25753;DHT22;13600;50.816;4.416;2023-09-07T01:54:49;20.70;99.90
25753;DHT22;13600;50.816;4.416;2023-09-07T01:57:15;20.70;99.90
25753;DHT22;13600;50.816;4.416;2023-09-07T01:59:40;20.80;99.90
25753;DHT22;13600;50.816;4.416;2023-09-07T02:02:06;20.70;99.90
25753;DHT22;13600;50.816;4.416;2023-09-07T02:04:31;20.80;99.90
25753;DHT22;13600;50.816;4.416;2023-09-07T02:06:57;20.80;99.90
25753;DHT22;13600;50.816;4.416;2023-09-07T02:09:23;20.80;99.90
25753;DHT22;13600;50.816;4.416;2023-09-07T02:11:49;20.60;99.90
25753;DHT22;13600;50.816;4.416;2023-09-07T02:14:15;20.70;99.90
25753;DHT22;13600;50.816;4.416;2023-09-07T02:16:41;20.70;99.90
25753;DHT22;13600;50.816;4.416;2023-09-07T02:19:07;20.70;99.90
25753;DHT22;13600;50.816;4.416;2023-09-07T02:21:33;20.80;99.90
25753;DHT22;13600;50.816;4.416;2023-09-07T02:23:59;20.70;99.90
25753;DHT22;13600;50.816;4.416;2023-09-07T02:26:24;20.70;99.90
25753;DHT22;13600;50.816;4.416;2023-09-07T02:28:50;20.60;99.90
25753;DHT22;13600;50.816;4.416;2023-09-07T02:31:16;20.70;99.90
25753;DHT22;13600;50.816;4.416;2023-09-07T02:33:42;20.60;99.90
25753;DHT22;13600;50.816;4.416;2023-09-07T02:36:10;20.40;99.90
25753;DHT22;13600;50.816;4.416;2023-09-07T02:38:38;20.70;99.90
25753;DHT22;13600;50.816;4.416;2023-09-07T02:41:07;20.70;99.90
25753;DHT22;13600;50.816;4.416;2023-09-07T02:43:33;20.60;99.90
25753;DHT22;13600;50.816;4.416;2023-09-07T02:46:01;20.50;99.90
25753;DHT22;13600;50.816;4.416;2023-09-07T02:48:27;20.40;99.90
25753;DHT22;13600;50.816;4.416;2023-09-07T02:51:05;20.30;99.90
25753;DHT22;13600;50.816;4.416;2023-09-07T02:53:31;20.50;99.90
25753;DHT22;13600;50.816;4.416;2023-09-07T02:56:19;20.40;99.90
25753;DHT22;13600;50.816;4.416;2023-09-07T02:58:51;20.20;99.90
25753;DHT22;13600;50.816;4.416;2023-09-07T03:01:16;20.00;99.90
25753;DHT22;13600;50.816;4.416;2023-09-07T03:03:47;20.00;99.90
25753;DHT22;13600;50.816;4.416;2023-09-07T03:06:31;19.90;99.90
25753;DHT22;13600;50.816;4.416;2023-09-07T03:09:08;20.10;99.90
25753;DHT22;13600;50.816;4.416;2023-09-07T03:11:35;20.10;99.90
25753;DHT22;13600;50.816;4.416;2023-09-07T03:14:00;20.20;99.90
25753;DHT22;13600;50.816;4.416;2023-09-07T03:16:27;20.20;99.90
25753;DHT22;13600;50.816;4.416;2023-09-07T03:18:53;20.10;99.90
25753;DHT22;13600;50.816;4.416;2023-09-07T03:21:20;19.90;99.90
25753;DHT22;13600;50.816;4.416;2023-09-07T03:23:46;19.90;99.90
25753;DHT22;13600;50.816;4.416;2023-09-07T03:29:29;19.90;99.90
25753;DHT22;13600;50.816;4.416;2023-09-07T03:32:05;19.90;99.90
25753;DHT22;13600;50.816;4.416;2023-09-07T03:34:39;19.80;99.90
25753;DHT22;13600;50.816;4.416;2023-09-07T03:37:05;19.90;99.90
25753;DHT22;13600;50.816;4.416;2023-09-07T03:39:38;19.90;99.90
25753;DHT22;13600;50.816;4.416;2023-09-07T03:42:16;19.90;99.90
25753;DHT22;13600;50.816;4.416;2023-09-07T03:44:42;20.00;99.90
25753;DHT22;13600;50.816;4.416;2023-09-07T03:47:13;20.10;99.90
25753;DHT22;13600;50.816;4.416;2023-09-07T03:49:39;20.10;99.90
25753;DHT22;13600;50.816;4.416;2023-09-07T03:52:10;20.10;99.90
25753;DHT22;13600;50.816;4.416;2023-09-07T03:54:40;19.90;99.90
25753;DHT22;13600;50.816;4.416;2023-09-07T03:57:07;19.80;99.90
25753;DHT22;13600;50.816;4.416;2023-09-07T03:59:36;19.90;99.90
25753;DHT22;13600;50.816;4.416;2023-09-07T04:02:02;19.90;99.90
25753;DHT22;13600;50.816;4.416;2023-09-07T04:04:30;19.70;99.90
25753;DHT22;13600;50.816;4.416;2023-09-07T04:06:57;19.70;99.90
25753;DHT22;13600;50.816;4.416;2023-09-07T04:09:23;19.60;99.90
25753;DHT22;13600;50.816;4.416;2023-09-07T04:11:48;19.50;99.90
25753;DHT22;13600;50.816;4.416;2023-09-07T04:14:18;19.50;99.90
25753;DHT22;13600;50.816;4.416;2023-09-07T04:16:46;19.50;99.90
25753;DHT22;13600;50.816;4.416;2023-09-07T04:19:12;19.60;99.90
25753;DHT22;13600;50.816;4.416;2023-09-07T04:21:40;19.60;99.90
25753;DHT22;13600;50.816;4.416;2023-09-07T04:24:12;19.50;99.90
25753;DHT22;13600;50.816;4.416;2023-09-07T04:26:38;19.60;99.90
25753;DHT22;13600;50.816;4.416;2023-09-07T04:29:07;19.60;99.90
25753;DHT22;13600;50.816;4.416;2023-09-07T04:31:32;19.60;99.90
25753;DHT22;13600;50.816;4.416;2023-09-07T04:33:58;19.70;99.90
25753;DHT22;13600;50.816;4.416;2023-09-07T04:36:24;19.80;99.90
25753;DHT22;13600;50.816;4.416;2023-09-07T04:38:49;19.80;99.90
25753;DHT22;13600;50.816;4.416;2023-09-07T04:41:15;19.80;99.90
25753;DHT22;13600;50.816;4.416;2023-09-07T04:43:42;19.70;99.90
25753;DHT22;13600;50.816;4.416;2023-09-07T04:46:11;19.70;99.90
25753;DHT22;13600;50.816;4.416;2023-09-07T04:48:40;19.60;99.90
25753;DHT22;13600;50.816;4.416;2023-09-07T04:51:12;19.60;99.90
25753;DHT22;13600;50.816;4.416;2023-09-07T04:53:39;19.60;99.90
25753;DHT22;13600;50.816;4.416;2023-09-07T04:56:06;19.60;99.90
25753;DHT22;13600;50.816;4.416;2023-09-07T04:58:32;19.50;99.90
25753;DHT22;13600;50.816;4.416;2023-09-07T05:01:06;19.60;99.90
25753;DHT22;13600;50.816;4.416;2023-09-07T05:03:33;19.60;99.90
25753;DHT22;13600;50.816;4.416;2023-09-07T05:06:00;19.70;99.90
25753;DHT22;13600;50.816;4.416;2023-09-07T05:08:26;19.60;99.90
25753;DHT22;13600;50.816;4.416;2023-09-07T05:10:56;19.50;99.90
25753;DHT22;13600;50.816;4.416;2023-09-07T05:13:23;19.40;99.90
25753;DHT22;13600;50.816;4.416;2023-09-07T05:15:51;19.50;99.90
25753;DHT22;13600;50.816;4.416;2023-09-07T05:18:18;19.50;99.90
25753;DHT22;13600;50.816;4.416;2023-09-07T05:20:46;19.40;99.90
25753;DHT22;13600;50.816;4.416;2023-09-07T05:23:15;19.40;99.90
25753;DHT22;13600;50.816;4.416;2023-09-07T05:25:46;19.30;99.90
25753;DHT22;13600;50.816;4.416;2023-09-07T05:28:13;19.40;99.90
25753;DHT22;13600;50.816;4.416;2023-09-07T05:30:39;19.50;99.90
25753;DHT22;13600;50.816;4.416;2023-09-07T05:33:04;19.50;99.90
25753;DHT22;13600;50.816;4.416;2023-09-07T05:35:30;19.40;99.90
25753;DHT22;13600;50.816;4.416;2023-09-07T05:37:58;19.40;99.90
25753;DHT22;13600;50.816;4.416;2023-09-07T05:40:25;19.40;99.90
25753;DHT22;13600;50.816;4.416;2023-09-07T05:42:50;19.30;99.90
25753;DHT22;13600;50.816;4.416;2023-09-07T05:45:18;19.20;99.90
25753;DHT22;13600;50.816;4.416;2023-09-07T05:47:44;19.50;99.90
25753;DHT22;13600;50.816;4.416;2023-09-07T05:50:09;19.50;99.90
25753;DHT22;13600;50.816;4.416;2023-09-07T05:52:35;19.50;99.90
25753;DHT22;13600;50.816;4.416;2023-09-07T05:55:02;19.40;99.90
25753;DHT22;13600;50.816;4.416;2023-09-07T05:57:27;19.60;99.90
25753;DHT22;13600;50.816;4.416;2023-09-07T05:59:54;19.80;99.90
25753;DHT22;13600;50.816;4.416;2023-09-07T06:02:20;19.90;99.90
25753;DHT22;13600;50.816;4.416;2023-09-07T06:04:48;19.90;99.90
25753;DHT22;13600;50.816;4.416;2023-09-07T06:07:13;20.00;99.90
25753;DHT22;13600;50.816;4.416;2023-09-07T06:09:39;20.00;99.90
25753;DHT22;13600;50.816;4.416;2023-09-07T06:12:05;20.00;99.90
25753;DHT22;13600;50.816;4.416;2023-09-07T06:14:31;20.00;99.90
25753;DHT22;13600;50.816;4.416;2023-09-07T06:16:56;20.00;99.90
25753;DHT22;13600;50.816;4.416;2023-09-07T06:19:22;20.20;99.90
25753;DHT22;13600;50.816;4.416;2023-09-07T06:21:49;20.30;99.90
25753;DHT22;13600;50.816;4.416;2023-09-07T06:24:14;20.50;99.90
25753;DHT22;13600;50.816;4.416;2023-09-07T06:26:41;20.50;99.90
25753;DHT22;13600;50.816;4.416;2023-09-07T06:29:08;20.50;99.90
25753;DHT22;13600;50.816;4.416;2023-09-07T06:31:35;20.40;99.90
25753;DHT22;13600;50.816;4.416;2023-09-07T06:34:00;20.50;99.90
25753;DHT22;13600;50.816;4.416;2023-09-07T06:36:26;20.50;99.90
25753;DHT22;13600;50.816;4.416;2023-09-07T06:38:52;20.60;99.90
25753;DHT22;13600;50.816;4.416;2023-09-07T06:41:17;20.80;99.90
25753;DHT22;13600;50.816;4.416;2023-09-07T06:43:43;21.00;99.90
25753;DHT22;13600;50.816;4.416;2023-09-07T06:46:09;21.20;99.90
25753;DHT22;13600;50.816;4.416;2023-09-07T06:48:35;21.30;99.90
25753;DHT22;13600;50.816;4.416;2023-09-07T06:51:05;21.50;99.90
25753;DHT22;13600;50.816;4.416;2023-09-07T06:53:32;22.40;99.90
25753;DHT22;13600;50.816;4.416;2023-09-07T06:56:04;23.80;99.90
25753;DHT22;13600;50.816;4.416;2023-09-07T06:58:31;25.70;99.90
25753;DHT22;13600;50.816;4.416;2023-09-07T07:01:01;27.10;99.90
25753;DHT22;13600;50.816;4.416;2023-09-07T07:03:29;28.80;99.90
25753;DHT22;13600;50.816;4.416;2023-09-07T07:05:57;30.60;99.90
25753;DHT22;13600;50.816;4.416;2023-09-07T07:08:23;31.90;99.90
25753;DHT22;13600;50.816;4.416;2023-09-07T07:10:49;32.60;99.90
25753;DHT22;13600;50.816;4.416;2023-09-07T07:13:16;33.20;97.80
25753;DHT22;13600;50.816;4.416;2023-09-07T07:15:42;34.20;94.70
25753;DHT22;13600;50.816;4.416;2023-09-07T07:18:08;34.60;92.50
25753;DHT22;13600;50.816;4.416;2023-09-07T07:20:39;35.00;90.60
25753;DHT22;13600;50.816;4.416;2023-09-07T07:23:05;35.20;90.10
25753;DHT22;13600;50.816;4.416;2023-09-07T07:25:35;35.50;87.20
25753;DHT22;13600;50.816;4.416;2023-09-07T07:28:03;35.30;86.10
25753;DHT22;13600;50.816;4.416;2023-09-07T07:30:37;35.90;84.70
25753;DHT22;13600;50.816;4.416;2023-09-07T07:33:04;36.00;81.90
25753;DHT22;13600;50.816;4.416;2023-09-07T07:35:31;34.90;84.10
25753;DHT22;13600;50.816;4.416;2023-09-07T07:37:56;33.50;87.40
25753;DHT22;13600;50.816;4.416;2023-09-07T07:40:22;32.30;90.10
25753;DHT22;13600;50.816;4.416;2023-09-07T07:42:48;31.30;91.10
25753;DHT22;13600;50.816;4.416;2023-09-07T07:45:14;30.30;93.10
25753;DHT22;13600;50.816;4.416;2023-09-07T07:47:43;29.70;95.60
25753;DHT22;13600;50.816;4.416;2023-09-07T07:50:09;28.90;96.70
25753;DHT22;13600;50.816;4.416;2023-09-07T07:52:36;28.50;97.90
25753;DHT22;13600;50.816;4.416;2023-09-07T07:55:01;28.20;98.70
25753;DHT22;13600;50.816;4.416;2023-09-07T07:57:28;27.90;99.90
25753;DHT22;13600;50.816;4.416;2023-09-07T07:59:55;27.70;99.90
25753;DHT22;13600;50.816;4.416;2023-09-07T08:02:21;27.50;99.90
25753;DHT22;13600;50.816;4.416;2023-09-07T08:04:48;27.20;99.90
25753;DHT22;13600;50.816;4.416;2023-09-07T08:07:13;26.90;99.90
25753;DHT22;13600;50.816;4.416;2023-09-07T08:09:39;26.70;99.90
25753;DHT22;13600;50.816;4.416;2023-09-07T08:12:05;26.70;99.90
25753;DHT22;13600;50.816;4.416;2023-09-07T08:14:31;26.60;99.90
25753;DHT22;13600;50.816;4.416;2023-09-07T08:16:58;26.50;99.90
25753;DHT22;13600;50.816;4.416;2023-09-07T08:19:24;26.50;99.90
25753;DHT22;13600;50.816;4.416;2023-09-07T08:21:51;26.60;99.90
25753;DHT22;13600;50.816;4.416;2023-09-07T08:24:17;26.50;99.90
25753;DHT22;13600;50.816;4.416;2023-09-07T08:26:49;26.50;99.90
25753;DHT22;13600;50.816;4.416;2023-09-07T08:29:19;26.50;99.90
25753;DHT22;13600;50.816;4.416;2023-09-07T08:31:46;26.50;99.90
25753;DHT22;13600;50.816;4.416;2023-09-07T08:34:13;26.50;99.90
25753;DHT22;13600;50.816;4.416;2023-09-07T08:36:40;26.40;99.90
25753;DHT22;13600;50.816;4.416;2023-09-07T08:39:06;26.50;99.90
25753;DHT22;13600;50.816;4.416;2023-09-07T08:41:40;26.60;99.90
25753;DHT22;13600;50.816;4.416;2023-09-07T08:44:17;26.80;99.90
25753;DHT22;13600;50.816;4.416;2023-09-07T08:46:45;27.10;99.90
25753;DHT22;13600;50.816;4.416;2023-09-07T08:49:11;27.30;99.90
25753;DHT22;13600;50.816;4.416;2023-09-07T08:51:38;27.50;99.90
25753;DHT22;13600;50.816;4.416;2023-09-07T08:54:04;27.80;99.90
25753;DHT22;13600;50.816;4.416;2023-09-07T08:56:30;27.90;99.90
25753;DHT22;13600;50.816;4.416;2023-09-07T08:58:57;27.80;99.90
25753;DHT22;13600;50.816;4.416;2023-09-07T09:01:24;27.70;99.90
25753;DHT22;13600;50.816;4.416;2023-09-07T09:03:50;27.90;99.90
25753;DHT22;13600;50.816;4.416;2023-09-07T09:06:18;28.40;99.90
25753;DHT22;13600;50.816;4.416;2023-09-07T09:08:53;29.60;99.90
25753;DHT22;13600;50.816;4.416;2023-09-07T09:11:19;32.20;95.20
25753;DHT22;13600;50.816;4.416;2023-09-07T09:13:46;35.10;89.80
25753;DHT22;13600;50.816;4.416;2023-09-07T09:16:13;36.00;83.90
25753;DHT22;13600;50.816;4.416;2023-09-07T09:18:58;37.50;79.60
25753;DHT22;13600;50.816;4.416;2023-09-07T09:21:25;39.10;74.00
25753;DHT22;13600;50.816;4.416;2023-09-07T09:23:53;40.00;67.40
25753;DHT22;13600;50.816;4.416;2023-09-07T09:26:20;40.60;63.70
25753;DHT22;13600;50.816;4.416;2023-09-07T09:28:46;41.00;61.70
25753;DHT22;13600;50.816;4.416;2023-09-07T09:31:13;41.30;62.30
25753;DHT22;13600;50.816;4.416;2023-09-07T09:33:40;42.70;59.30
25753;DHT22;13600;50.816;4.416;2023-09-07T09:36:07;42.10;57.30
25753;DHT22;13600;50.816;4.416;2023-09-07T09:38:34;42.50;58.00
25753;DHT22;13600;50.816;4.416;2023-09-07T09:41:01;43.50;55.70
25753;DHT22;13600;50.816;4.416;2023-09-07T09:43:29;42.50;54.80
25753;DHT22;13600;50.816;4.416;2023-09-07T09:45:55;42.90;56.20
25753;DHT22;13600;50.816;4.416;2023-09-07T09:48:22;42.50;54.90
25753;DHT22;13600;50.816;4.416;2023-09-07T09:50:49;42.70;54.60
25753;DHT22;13600;50.816;4.416;2023-09-07T09:53:19;42.90;54.60
25753;DHT22;13600;50.816;4.416;2023-09-07T09:55:50;43.30;54.30
25753;DHT22;13600;50.816;4.416;2023-09-07T09:58:18;43.60;53.40
25753;DHT22;13600;50.816;4.416;2023-09-07T10:00:45;43.60;52.80
25753;DHT22;13600;50.816;4.416;2023-09-07T10:03:18;44.00;52.30
25753;DHT22;13600;50.816;4.416;2023-09-07T10:05:49;44.40;52.90
25753;DHT22;13600;50.816;4.416;2023-09-07T10:08:17;45.40;51.20
25753;DHT22;13600;50.816;4.416;2023-09-07T10:10:46;45.90;50.20
25753;DHT22;13600;50.816;4.416;2023-09-07T10:13:16;45.90;50.00
25753;DHT22;13600;50.816;4.416;2023-09-07T10:16:00;45.90;49.60
25753;DHT22;13600;50.816;4.416;2023-09-07T10:18:33;46.40;48.90
25753;DHT22;13600;50.816;4.416;2023-09-07T10:21:00;46.50;48.90
25753;DHT22;13600;50.816;4.416;2023-09-07T10:23:44;47.10;48.50
25753;DHT22;13600;50.816;4.416;2023-09-07T10:28:37;47.60;46.90
25753;DHT22;13600;50.816;4.416;2023-09-07T10:31:06;48.20;46.50
25753;DHT22;13600;50.816;4.416;2023-09-07T10:33:33;49.10;45.80
25753;DHT22;13600;50.816;4.416;2023-09-07T10:36:03;47.60;46.00
25753;DHT22;13600;50.816;4.416;2023-09-07T10:38:34;47.10;45.40
25753;DHT22;13600;50.816;4.416;2023-09-07T10:41:03;45.90;45.70
25753;DHT22;13600;50.816;4.416;2023-09-07T10:43:31;45.80;46.80
25753;DHT22;13600;50.816;4.416;2023-09-07T10:45:58;45.70;46.90
25753;DHT22;13600;50.816;4.416;2023-09-07T10:48:25;45.00;46.60
25753;DHT22;13600;50.816;4.416;2023-09-07T10:50:51;46.20;47.60
25753;DHT22;13600;50.816;4.416;2023-09-07T10:53:28;47.00;46.70
25753;DHT22;13600;50.816;4.416;2023-09-07T10:55:57;47.30;46.00
25753;DHT22;13600;50.816;4.416;2023-09-07T10:58:29;48.30;44.80
25753;DHT22;13600;50.816;4.416;2023-09-07T11:00:56;47.50;44.50
25753;DHT22;13600;50.816;4.416;2023-09-07T11:03:22;47.50;45.10
25753;DHT22;13600;50.816;4.416;2023-09-07T11:05:51;47.20;45.20
25753;DHT22;13600;50.816;4.416;2023-09-07T11:08:19;47.50;44.60
25753;DHT22;13600;50.816;4.416;2023-09-07T11:10:45;47.60;44.50
25753;DHT22;13600;50.816;4.416;2023-09-07T11:13:10;48.30;44.60
25753;DHT22;13600;50.816;4.416;2023-09-07T11:15:36;48.80;43.40
25753;DHT22;13600;50.816;4.416;2023-09-07T11:18:06;48.90;43.10
25753;DHT22;13600;50.816;4.416;2023-09-07T11:20:32;48.90;43.30
25753;DHT22;13600;50.816;4.416;2023-09-07T11:22:59;49.30;43.20
25753;DHT22;13600;50.816;4.416;2023-09-07T11:25:24;49.80;42.30
25753;DHT22;13600;50.816;4.416;2023-09-07T11:27:51;49.50;42.40
25753;DHT22;13600;50.816;4.416;2023-09-07T11:30:20;49.60;42.00
25753;DHT22;13600;50.816;4.416;2023-09-07T11:32:47;48.80;42.10
25753;DHT22;13600;50.816;4.416;2023-09-07T11:35:13;49.00;42.10
25753;DHT22;13600;50.816;4.416;2023-09-07T11:37:39;48.90;41.50
25753;DHT22;13600;50.816;4.416;2023-09-07T11:40:06;49.50;41.20
25753;DHT22;13600;50.816;4.416;2023-09-07T11:42:40;49.10;41.10
25753;DHT22;13600;50.816;4.416;2023-09-07T11:45:07;49.30;41.50
25753;DHT22;13600;50.816;4.416;2023-09-07T11:47:34;49.40;41.30
25753;DHT22;13600;50.816;4.416;2023-09-07T11:50:03;49.20;41.10
25753;DHT22;13600;50.816;4.416;2023-09-07T11:52:30;49.20;40.40
25753;DHT22;13600;50.816;4.416;2023-09-07T11:54:56;48.90;41.00
25753;DHT22;13600;50.816;4.416;2023-09-07T11:57:22;48.70;41.10
25753;DHT22;13600;50.816;4.416;2023-09-07T11:59:48;48.40;41.30
25753;DHT22;13600;50.816;4.416;2023-09-07T12:02:13;47.90;41.80
25753;DHT22;13600;50.816;4.416;2023-09-07T12:04:41;47.20;42.50
25753;DHT22;13600;50.816;4.416;2023-09-07T12:07:07;47.50;42.20
25753;DHT22;13600;50.816;4.416;2023-09-07T12:09:33;48.10;42.60
25753;DHT22;13600;50.816;4.416;2023-09-07T12:11:59;48.70;42.40
25753;DHT22;13600;50.816;4.416;2023-09-07T12:14:25;48.80;41.70
25753;DHT22;13600;50.816;4.416;2023-09-07T12:16:51;48.60;41.90
25753;DHT22;13600;50.816;4.416;2023-09-07T12:19:17;47.80;41.10
25753;DHT22;13600;50.816;4.416;2023-09-07T12:21:42;48.40;42.30
25753;DHT22;13600;50.816;4.416;2023-09-07T12:24:08;48.50;41.70
25753;DHT22;13600;50.816;4.416;2023-09-07T12:26:34;48.80;40.10
25753;DHT22;13600;50.816;4.416;2023-09-07T12:28:59;47.90;41.20
25753;DHT22;13600;50.816;4.416;2023-09-07T12:31:26;47.80;41.90
25753;DHT22;13600;50.816;4.416;2023-09-07T12:33:52;48.70;42.10
25753;DHT22;13600;50.816;4.416;2023-09-07T12:36:18;49.50;41.00
25753;DHT22;13600;50.816;4.416;2023-09-07T12:38:46;49.20;40.60
25753;DHT22;13600;50.816;4.416;2023-09-07T12:41:12;49.30;40.40
25753;DHT22;13600;50.816;4.416;2023-09-07T12:43:38;49.20;41.00
25753;DHT22;13600;50.816;4.416;2023-09-07T12:46:04;49.50;39.90
25753;DHT22;13600;50.816;4.416;2023-09-07T12:48:30;48.10;40.70
25753;DHT22;13600;50.816;4.416;2023-09-07T12:50:56;47.20;41.80
25753;DHT22;13600;50.816;4.416;2023-09-07T12:53:21;47.60;41.60
25753;DHT22;13600;50.816;4.416;2023-09-07T12:55:54;48.30;41.40
25753;DHT22;13600;50.816;4.416;2023-09-07T12:58:20;48.10;40.90
25753;DHT22;13600;50.816;4.416;2023-09-07T13:00:46;47.90;41.60
25753;DHT22;13600;50.816;4.416;2023-09-07T13:03:14;47.80;41.40
25753;DHT22;13600;50.816;4.416;2023-09-07T13:05:40;48.20;41.60
25753;DHT22;13600;50.816;4.416;2023-09-07T13:08:06;47.90;41.30
25753;DHT22;13600;50.816;4.416;2023-09-07T13:10:32;47.60;41.60
25753;DHT22;13600;50.816;4.416;2023-09-07T13:12:58;48.10;41.60
25753;DHT22;13600;50.816;4.416;2023-09-07T13:15:24;48.10;42.10
25753;DHT22;13600;50.816;4.416;2023-09-07T13:17:50;47.70;41.20
25753;DHT22;13600;50.816;4.416;2023-09-07T13:20:16;47.50;42.60
25753;DHT22;13600;50.816;4.416;2023-09-07T13:22:44;48.00;41.80
25753;DHT22;13600;50.816;4.416;2023-09-07T13:25:13;48.00;41.50
25753;DHT22;13600;50.816;4.416;2023-09-07T13:27:38;47.60;41.60
25753;DHT22;13600;50.816;4.416;2023-09-07T13:30:05;47.20;42.70
25753;DHT22;13600;50.816;4.416;2023-09-07T13:32:33;47.00;42.70
25753;DHT22;13600;50.816;4.416;2023-09-07T13:35:05;47.00;42.50
25753;DHT22;13600;50.816;4.416;2023-09-07T13:37:31;47.10;42.60
25753;DHT22;13600;50.816;4.416;2023-09-07T13:39:57;47.30;42.30
25753;DHT22;13600;50.816;4.416;2023-09-07T13:42:25;46.70;43.40
25753;DHT22;13600;50.816;4.416;2023-09-07T13:44:52;47.30;41.90
25753;DHT22;13600;50.816;4.416;2023-09-07T13:47:17;47.70;42.40
25753;DHT22;13600;50.816;4.416;2023-09-07T13:49:43;47.50;42.40
25753;DHT22;13600;50.816;4.416;2023-09-07T13:52:08;46.60;42.00
25753;DHT22;13600;50.816;4.416;2023-09-07T13:54:34;47.20;42.90
25753;DHT22;13600;50.816;4.416;2023-09-07T13:56:59;47.20;42.60
25753;DHT22;13600;50.816;4.416;2023-09-07T13:59:25;46.90;43.30
25753;DHT22;13600;50.816;4.416;2023-09-07T14:01:54;46.50;43.20
25753;DHT22;13600;50.816;4.416;2023-09-07T14:04:21;46.20;43.00
25753;DHT22;13600;50.816;4.416;2023-09-07T14:06:46;46.80;43.10
25753;DHT22;13600;50.816;4.416;2023-09-07T14:09:12;46.60;43.30
25753;DHT22;13600;50.816;4.416;2023-09-07T14:11:38;46.80;42.90
25753;DHT22;13600;50.816;4.416;2023-09-07T14:14:03;46.60;43.00
25753;DHT22;13600;50.816;4.416;2023-09-07T14:16:29;46.50;43.10
25753;DHT22;13600;50.816;4.416;2023-09-07T14:18:55;45.70;42.60
25753;DHT22;13600;50.816;4.416;2023-09-07T14:21:21;45.20;44.40
25753;DHT22;13600;50.816;4.416;2023-09-07T14:23:47;44.90;44.60
25753;DHT22;13600;50.816;4.416;2023-09-07T14:26:14;44.80;44.40
25753;DHT22;13600;50.816;4.416;2023-09-07T14:28:39;44.50;45.00
25753;DHT22;13600;50.816;4.416;2023-09-07T14:31:06;44.90;44.60
25753;DHT22;13600;50.816;4.416;2023-09-07T14:33:33;44.80;45.50
25753;DHT22;13600;50.816;4.416;2023-09-07T14:35:59;44.00;45.50
25753;DHT22;13600;50.816;4.416;2023-09-07T14:38:25;43.50;45.90
25753;DHT22;13600;50.816;4.416;2023-09-07T14:40:55;43.30;45.60
25753;DHT22;13600;50.816;4.416;2023-09-07T14:43:24;43.40;45.80
25753;DHT22;13600;50.816;4.416;2023-09-07T14:45:50;43.70;45.50
25753;DHT22;13600;50.816;4.416;2023-09-07T14:48:16;43.60;45.90
25753;DHT22;13600;50.816;4.416;2023-09-07T14:50:41;43.80;46.00
25753;DHT22;13600;50.816;4.416;2023-09-07T14:53:07;43.80;46.40
25753;DHT22;13600;50.816;4.416;2023-09-07T14:55:32;44.20;47.20
25753;DHT22;13600;50.816;4.416;2023-09-07T14:57:58;44.10;47.70
25753;DHT22;13600;50.816;4.416;2023-09-07T15:00:26;44.60;47.30
25753;DHT22;13600;50.816;4.416;2023-09-07T15:02:53;44.40;47.00
25753;DHT22;13600;50.816;4.416;2023-09-07T15:05:19;44.70;46.70
25753;DHT22;13600;50.816;4.416;2023-09-07T15:07:44;44.80;46.70
25753;DHT22;13600;50.816;4.416;2023-09-07T15:10:10;44.40;46.80
25753;DHT22;13600;50.816;4.416;2023-09-07T15:12:35;44.20;46.80
25753;DHT22;13600;50.816;4.416;2023-09-07T15:15:01;43.90;47.50
25753;DHT22;13600;50.816;4.416;2023-09-07T15:17:27;43.60;47.60
25753;DHT22;13600;50.816;4.416;2023-09-07T15:19:53;43.30;48.30
25753;DHT22;13600;50.816;4.416;2023-09-07T15:22:19;43.30;48.40
25753;DHT22;13600;50.816;4.416;2023-09-07T15:24:45;42.90;48.80
25753;DHT22;13600;50.816;4.416;2023-09-07T15:27:11;42.60;48.80
25753;DHT22;13600;50.816;4.416;2023-09-07T15:29:38;42.40;49.70
25753;DHT22;13600;50.816;4.416;2023-09-07T15:32:05;42.60;49.90
25753;DHT22;13600;50.816;4.416;2023-09-07T15:34:32;42.40;50.10
25753;DHT22;13600;50.816;4.416;2023-09-07T15:37:00;42.30;49.90